createdAt,value
2022-12-07T00:01:51.033Z,5.29
2022-12-07T00:03:58.134Z,5.31
2022-12-07T00:06:03.847Z,5.32
2022-12-07T00:08:07.206Z,5.30
2022-12-07T00:10:10.692Z,5.37
2022-12-07T00:12:14.081Z,5.39
2022-12-07T00:14:18.620Z,5.40
2022-12-07T00:16:23.990Z,5.41
2022-12-07T00:18:27.470Z,5.41
2022-12-07T00:20:31.262Z,5.36
2022-12-07T00:22:35.895Z,5.36
2022-12-07T00:24:39.300Z,5.43
2022-12-07T00:26:44.878Z,5.35
2022-12-07T00:28:48.930Z,5.44
2022-12-07T00:30:53.023Z,5.50
2022-12-07T00:32:56.305Z,5.34
2022-12-07T00:34:59.587Z,5.35
2022-12-07T00:37:02.852Z,5.38
2022-12-07T00:39:07.957Z,5.48
2022-12-07T00:41:14.912Z,5.51
2022-12-07T00:43:18.243Z,5.44
2022-12-07T00:45:21.599Z,5.47
2022-12-07T00:47:25.050Z,5.53
2022-12-07T00:49:28.406Z,5.49
2022-12-07T00:51:31.781Z,5.47
2022-12-07T00:53:41.091Z,5.48
2022-12-07T00:55:46.826Z,5.50
2022-12-07T00:57:50.330Z,5.50
2022-12-07T00:59:56.239Z,5.43
2022-12-07T01:01:59.625Z,5.51
2022-12-07T01:04:03.435Z,5.48
2022-12-07T01:06:07.520Z,5.39
2022-12-07T01:08:11.071Z,5.42
2022-12-07T01:10:15.143Z,5.34
2022-12-07T01:12:19.842Z,5.39
2022-12-07T01:14:23.116Z,5.39
2022-12-07T01:16:29.451Z,5.31
2022-12-07T01:18:35.400Z,5.17
2022-12-07T01:20:39.408Z,5.33
2022-12-07T01:22:43.794Z,5.37
2022-12-07T01:24:47.717Z,5.41
2022-12-07T01:26:51.235Z,5.42
2022-12-07T01:28:56.407Z,5.34
2022-12-07T01:31:01.203Z,5.41
2022-12-07T01:33:04.641Z,5.42
2022-12-07T01:35:08.567Z,5.47
2022-12-07T01:37:11.884Z,5.40
2022-12-07T01:39:15.205Z,5.41
2022-12-07T01:41:19.492Z,5.40
2022-12-07T01:43:24.811Z,5.30
2022-12-07T01:45:41.557Z,5.36
2022-12-07T01:47:48.902Z,5.37
2022-12-07T01:49:52.427Z,5.39
2022-12-07T01:52:02.415Z,5.40
2022-12-07T01:54:05.847Z,5.38
2022-12-07T01:56:11.603Z,5.34
2022-12-07T01:58:15.930Z,5.42
2022-12-07T02:00:20.654Z,5.39
2022-12-07T02:02:29.792Z,5.39
2022-12-07T02:04:34.198Z,5.47
2022-12-07T02:06:38.617Z,5.48
2022-12-07T02:08:43.516Z,5.31
2022-12-07T02:10:46.845Z,5.41
2022-12-07T02:12:55.636Z,5.47
2022-12-07T02:14:58.980Z,5.44
2022-12-07T02:17:14.001Z,5.37
2022-12-07T02:19:49.497Z,5.29
2022-12-07T02:22:00.968Z,5.24
2022-12-07T02:24:38.561Z,5.25
2022-12-07T02:27:23.881Z,5.31
2022-12-07T02:29:31.979Z,5.40
2022-12-07T02:31:35.656Z,5.45
2022-12-07T02:33:45.465Z,5.44
2022-12-07T02:35:57.879Z,5.42
2022-12-07T02:38:09.270Z,5.39
2022-12-07T02:40:19.022Z,5.37
2022-12-07T02:42:28.760Z,5.31
2022-12-07T02:44:34.754Z,5.38
2022-12-07T02:46:41.802Z,5.31
2022-12-07T02:48:46.936Z,5.37
2022-12-07T02:50:51.151Z,5.38
2022-12-07T02:52:54.428Z,5.41
2022-12-07T02:54:57.714Z,5.39
2022-12-07T02:57:11.268Z,5.41
2022-12-07T02:59:25.035Z,5.50
2022-12-07T03:01:39.215Z,5.53
2022-12-07T03:03:49.226Z,5.38
2022-12-07T03:06:06.430Z,5.59
2022-12-07T03:08:19.600Z,5.57
2022-12-07T03:10:29.665Z,5.55
2022-12-07T03:12:37.165Z,5.59
2022-12-07T03:14:45.449Z,5.60
2022-12-07T03:16:56.904Z,5.72
2022-12-07T03:19:04.061Z,5.61
2022-12-07T03:21:13.665Z,5.69
2022-12-07T03:23:20.448Z,5.69
2022-12-07T03:25:24.378Z,5.76
2022-12-07T03:27:33.511Z,5.80
2022-12-07T03:29:43.239Z,5.79
2022-12-07T03:31:53.115Z,5.86
2022-12-07T03:34:02.434Z,5.78
2022-12-07T03:36:10.758Z,5.87
2022-12-07T03:38:20.163Z,5.82
2022-12-07T03:40:32.800Z,5.79
2022-12-07T03:42:36.411Z,5.75
2022-12-07T03:44:42.960Z,5.70
2022-12-07T03:46:55.610Z,5.59
2022-12-07T03:49:04.682Z,5.50
2022-12-07T03:51:15.950Z,5.44
2022-12-07T03:53:25.066Z,5.48
2022-12-07T03:55:32.040Z,5.48
2022-12-07T03:57:38.003Z,5.34
2022-12-07T03:59:42.194Z,5.19
2022-12-07T04:01:46.144Z,5.27
2022-12-07T04:03:50.915Z,5.28
2022-12-07T04:05:54.313Z,5.25
2022-12-07T04:07:58.260Z,5.21
2022-12-07T04:10:02.025Z,5.25
2022-12-07T04:12:06.489Z,5.29
2022-12-07T04:14:21.927Z,5.34
2022-12-07T04:16:25.337Z,5.35
2022-12-07T04:18:28.701Z,5.32
2022-12-07T04:20:33.428Z,5.30
2022-12-07T04:22:36.900Z,5.29
2022-12-07T04:24:40.884Z,5.28
2022-12-07T04:26:45.229Z,5.30
2022-12-07T04:28:48.568Z,5.32
2022-12-07T04:30:51.944Z,5.35
2022-12-07T04:32:55.262Z,5.36
2022-12-07T04:34:59.756Z,5.39
2022-12-07T04:37:04.396Z,5.42
2022-12-07T04:39:09.461Z,5.45
2022-12-07T04:41:12.735Z,5.39
2022-12-07T04:43:16.044Z,5.46
2022-12-07T04:45:19.394Z,5.55
2022-12-07T04:47:22.773Z,5.46
2022-12-07T04:49:26.961Z,5.52
2022-12-07T04:51:31.310Z,5.49
2022-12-07T04:53:35.963Z,5.47
2022-12-07T04:55:39.308Z,5.51
2022-12-07T04:57:42.615Z,5.52
2022-12-07T04:59:46.221Z,5.50
2022-12-07T05:01:49.733Z,5.48
2022-12-07T05:03:53.160Z,5.42
2022-12-07T05:05:56.471Z,5.41
2022-12-07T05:07:59.867Z,5.45
2022-12-07T05:10:05.453Z,5.34
2022-12-07T05:12:08.841Z,5.22
2022-12-07T05:14:15.520Z,5.34
2022-12-07T05:16:19.404Z,5.37
2022-12-07T05:18:22.884Z,5.39
2022-12-07T05:20:26.423Z,5.40
2022-12-07T05:22:30.062Z,5.38
2022-12-07T05:24:33.554Z,5.43
2022-12-07T05:26:38.556Z,5.36
2022-12-07T05:28:42.053Z,5.40
2022-12-07T05:30:45.669Z,5.44
2022-12-07T05:32:49.231Z,5.39
2022-12-07T05:34:52.719Z,5.36
2022-12-07T05:36:56.280Z,5.24
2022-12-07T05:39:00.090Z,5.22
2022-12-07T05:41:04.520Z,5.31
2022-12-07T05:43:09.438Z,5.30
2022-12-07T05:45:12.881Z,5.34
2022-12-07T05:47:17.500Z,5.37
2022-12-07T05:49:21.202Z,5.30
2022-12-07T05:51:24.809Z,5.39
2022-12-07T05:53:28.255Z,5.32
2022-12-07T05:55:31.863Z,5.27
2022-12-07T05:57:35.469Z,5.24
2022-12-07T05:59:39.186Z,5.22
2022-12-07T06:01:42.580Z,5.21
2022-12-07T06:03:46.418Z,5.27
2022-12-07T06:05:49.795Z,5.34
2022-12-07T06:07:53.164Z,5.25
2022-12-07T06:09:56.489Z,5.26
2022-12-07T06:12:18.093Z,5.31
2022-12-07T06:14:21.412Z,5.31
2022-12-07T06:16:26.236Z,5.33
2022-12-07T06:18:29.586Z,5.31
2022-12-07T06:20:33.031Z,5.32
2022-12-07T06:22:36.336Z,5.32
2022-12-07T06:24:40.448Z,5.25
2022-12-07T06:26:44.720Z,5.34
2022-12-07T06:28:48.159Z,5.40
2022-12-07T06:30:59.211Z,5.42
2022-12-07T06:33:03.908Z,5.44
2022-12-07T06:35:07.857Z,5.44
2022-12-07T06:37:11.157Z,5.37
2022-12-07T06:39:14.468Z,5.41
2022-12-07T06:41:19.092Z,5.40
2022-12-07T06:43:22.902Z,5.42
2022-12-07T06:45:26.240Z,5.30
2022-12-07T06:47:40.508Z,5.33
2022-12-07T06:49:45.602Z,5.45
2022-12-07T06:51:49.042Z,5.37
2022-12-07T06:53:53.782Z,5.23
2022-12-07T06:55:57.186Z,5.30
2022-12-07T06:58:00.521Z,5.33
2022-12-07T07:00:05.791Z,5.28
2022-12-07T07:02:10.755Z,5.24
2022-12-07T07:04:14.151Z,5.23
2022-12-07T07:06:18.865Z,5.30
2022-12-07T07:08:23.085Z,5.32
2022-12-07T07:10:27.023Z,5.37
2022-12-07T07:12:30.393Z,5.42
2022-12-07T07:14:33.938Z,5.38
2022-12-07T07:16:37.268Z,5.42
2022-12-07T07:18:40.648Z,5.60
2022-12-07T07:20:44.073Z,6.99
2022-12-07T07:22:48.741Z,7.03
2022-12-07T07:24:52.027Z,6.60
2022-12-07T07:26:55.908Z,6.33
2022-12-07T07:28:59.275Z,6.18
2022-12-07T07:31:02.744Z,6.13
2022-12-07T07:33:07.271Z,5.89
2022-12-07T07:35:10.723Z,5.81
2022-12-07T07:37:18.707Z,5.64
2022-12-07T07:39:26.489Z,5.50
2022-12-07T07:41:29.974Z,5.38
2022-12-07T07:43:34.493Z,5.53
2022-12-07T07:45:38.357Z,5.48
2022-12-07T07:47:42.623Z,5.36
2022-12-07T07:49:48.292Z,5.34
2022-12-07T07:51:51.963Z,5.30
2022-12-07T07:53:55.725Z,5.40
2022-12-07T07:56:00.413Z,5.37
2022-12-07T07:58:03.736Z,5.39
2022-12-07T08:00:09.503Z,5.37
2022-12-07T08:02:17.478Z,5.49
2022-12-07T08:04:20.819Z,5.49
2022-12-07T08:06:29.037Z,5.54
2022-12-07T08:08:35.240Z,5.45
2022-12-07T08:10:38.651Z,5.50
2022-12-07T08:13:03.120Z,5.24
2022-12-07T08:15:07.435Z,5.33
2022-12-07T08:17:10.769Z,5.42
2022-12-07T08:19:14.136Z,5.49
2022-12-07T08:21:17.946Z,5.46
2022-12-07T08:23:24.326Z,5.46
2022-12-07T08:25:34.231Z,5.42
2022-12-07T08:27:37.670Z,5.41
2022-12-07T08:29:42.420Z,5.34
2022-12-07T08:31:45.739Z,5.44
2022-12-07T08:33:49.756Z,5.40
2022-12-07T08:35:53.040Z,5.43
2022-12-07T08:37:58.264Z,5.47
2022-12-07T08:40:02.047Z,5.43
2022-12-07T08:42:06.048Z,5.55
2022-12-07T08:44:09.404Z,5.59
2022-12-07T08:46:21.101Z,5.65
2022-12-07T08:48:25.826Z,5.65
2022-12-07T08:50:29.676Z,5.67
2022-12-07T08:52:33.870Z,5.65
2022-12-07T08:54:40.739Z,5.72
2022-12-07T08:56:44.914Z,5.78
2022-12-07T08:58:48.291Z,5.85
2022-12-07T09:00:51.806Z,5.78
2022-12-07T09:02:56.670Z,5.83
2022-12-07T09:05:01.593Z,5.84
2022-12-07T09:07:05.238Z,5.82
2022-12-07T09:09:10.199Z,5.88
2022-12-07T09:11:13.640Z,5.89
2022-12-07T09:13:17.152Z,5.98
2022-12-07T09:15:20.449Z,5.95
2022-12-07T09:17:24.230Z,5.93
2022-12-07T09:19:29.142Z,5.96
2022-12-07T09:21:32.659Z,5.85
2022-12-07T09:23:35.974Z,6.00
2022-12-07T09:25:40.129Z,6.01
2022-12-07T09:27:43.838Z,6.00
2022-12-07T09:29:47.155Z,5.95
2022-12-07T09:31:50.567Z,5.97
2022-12-07T09:33:57.345Z,6.00
2022-12-07T09:36:02.090Z,6.05
2022-12-07T09:38:05.422Z,5.96
2022-12-07T09:40:09.745Z,5.89
2022-12-07T09:42:28.883Z,6.02
2022-12-07T09:44:34.652Z,6.11
2022-12-07T09:46:41.068Z,6.14
2022-12-07T09:48:45.837Z,6.18
2022-12-07T09:50:50.396Z,6.08
2022-12-07T09:52:58.093Z,6.09
2022-12-07T09:55:01.668Z,6.11
2022-12-07T09:57:05.480Z,6.05
2022-12-07T09:59:15.459Z,6.09
2022-12-07T10:01:21.736Z,5.92
2022-12-07T10:03:25.434Z,5.91
2022-12-07T10:05:32.528Z,5.71
2022-12-07T10:07:36.028Z,6.00
2022-12-07T10:09:40.774Z,6.04
2022-12-07T10:12:07.338Z,6.08
2022-12-07T10:14:15.225Z,5.99
2022-12-07T10:16:43.460Z,5.99
2022-12-07T10:18:46.818Z,6.11
2022-12-07T10:20:50.511Z,6.10
2022-12-07T10:22:59.075Z,6.10
2022-12-07T10:25:11.159Z,6.12
2022-12-07T10:27:21.769Z,6.10
2022-12-07T10:29:32.039Z,6.13
2022-12-07T10:31:40.957Z,6.17
2022-12-07T10:33:52.083Z,6.13
2022-12-07T10:35:55.574Z,6.17
2022-12-07T10:38:01.457Z,6.24
2022-12-07T10:40:27.765Z,6.39
2022-12-07T10:42:32.739Z,6.50
2022-12-07T10:44:36.703Z,6.36
2022-12-07T10:46:49.343Z,6.36
2022-12-07T10:49:05.988Z,6.37
2022-12-07T10:51:17.889Z,6.43
2022-12-07T10:53:35.502Z,6.24
2022-12-07T10:55:57.241Z,6.35
2022-12-07T10:58:22.437Z,6.43
2022-12-07T11:00:26.848Z,6.37
2022-12-07T11:02:47.823Z,6.35
2022-12-07T11:05:01.788Z,6.22
2022-12-07T11:07:13.569Z,6.41
2022-12-07T11:10:07.957Z,6.36
2022-12-07T11:12:15.627Z,6.34
2022-12-07T11:14:27.197Z,6.41
2022-12-07T11:16:41.348Z,6.50
2022-12-07T11:18:54.766Z,6.44
2022-12-07T11:21:06.360Z,6.39
2022-12-07T11:23:20.400Z,6.37
2022-12-07T11:25:33.293Z,6.33
2022-12-07T11:27:43.349Z,6.38
2022-12-07T11:29:58.068Z,6.36
2022-12-07T11:32:14.317Z,6.30
2022-12-07T11:34:27.170Z,6.38
2022-12-07T11:36:39.737Z,6.47
2022-12-07T11:38:48.322Z,6.48
2022-12-07T11:40:55.423Z,6.67
2022-12-07T11:43:06.339Z,6.90
2022-12-07T11:45:16.785Z,7.09
2022-12-07T11:47:27.511Z,7.58
2022-12-07T11:49:43.041Z,7.44
2022-12-07T11:51:51.108Z,7.20
2022-12-07T11:53:58.939Z,7.01
2022-12-07T11:56:06.223Z,6.81
2022-12-07T11:58:24.386Z,6.69
2022-12-07T12:00:28.057Z,6.65
2022-12-07T12:02:38.877Z,6.75
2022-12-07T12:04:53.051Z,7.06
2022-12-07T12:06:56.673Z,7.36
2022-12-07T12:11:45.896Z,7.47
2022-12-07T12:14:36.900Z,7.33
2022-12-07T12:17:00.449Z,7.29
2022-12-07T12:19:20.162Z,7.24
2022-12-07T12:21:29.731Z,7.16
2022-12-07T12:23:42.511Z,7.26
2022-12-07T12:25:48.836Z,7.27
2022-12-07T12:27:54.074Z,7.18
2022-12-07T12:30:01.185Z,7.36
2022-12-07T12:32:15.736Z,7.43
2022-12-07T12:34:34.736Z,7.48
2022-12-07T12:36:49.297Z,7.40
2022-12-07T12:39:09.440Z,7.29
2022-12-07T12:42:09.892Z,7.08
2022-12-07T12:44:41.809Z,6.92
2022-12-07T12:46:54.580Z,6.99
2022-12-07T12:49:46.333Z,7.10
2022-12-07T12:51:50.873Z,7.24
2022-12-07T12:53:54.300Z,7.47
2022-12-07T12:56:31.966Z,7.74
2022-12-07T12:58:44.471Z,8.05
2022-12-07T13:00:48.535Z,8.18
2022-12-07T13:02:54.325Z,8.45
2022-12-07T13:05:01.747Z,8.74
2022-12-07T13:07:05.615Z,8.76
2022-12-07T13:09:23.699Z,9.04
2022-12-07T13:11:31.929Z,9.34
2022-12-07T13:13:37.364Z,9.39
2022-12-07T13:15:43.382Z,9.42
2022-12-07T13:18:24.020Z,9.05
2022-12-07T13:20:52.568Z,8.57
2022-12-07T13:23:01.205Z,7.87
2022-12-07T13:25:10.872Z,7.61
2022-12-07T13:27:15.024Z,7.34
2022-12-07T13:29:21.054Z,7.01
2022-12-07T13:31:33.640Z,6.83
2022-12-07T13:33:37.772Z,6.77
2022-12-07T13:35:41.074Z,6.65
2022-12-07T13:37:46.379Z,6.71
2022-12-07T13:39:52.828Z,6.80
2022-12-07T13:41:57.985Z,6.92
2022-12-07T13:44:05.416Z,6.65
2022-12-07T13:46:10.293Z,6.78
2022-12-07T13:48:18.049Z,6.67
2022-12-07T13:50:26.958Z,6.57
2022-12-07T13:52:31.672Z,6.52
2022-12-07T13:54:46.281Z,6.63
2022-12-07T13:56:53.176Z,6.66
2022-12-07T13:58:57.255Z,6.70
2022-12-07T14:01:01.550Z,6.77
2022-12-07T14:03:31.175Z,6.70
2022-12-07T14:05:36.603Z,6.68
2022-12-07T14:07:51.466Z,6.69
2022-12-07T14:10:00.094Z,6.56
2022-12-07T14:12:08.547Z,6.42
2022-12-07T14:14:17.906Z,6.63
2022-12-07T14:16:28.598Z,6.62
2022-12-07T14:18:40.459Z,6.84
2022-12-07T14:20:43.998Z,6.79
2022-12-07T14:22:57.177Z,6.72
2022-12-07T14:25:03.228Z,6.55
2022-12-07T14:27:19.331Z,6.69
2022-12-07T14:29:34.689Z,6.71
2022-12-07T14:31:38.084Z,6.74
2022-12-07T14:33:43.922Z,6.86
2022-12-07T14:35:47.230Z,6.80
2022-12-07T14:37:51.744Z,6.82
2022-12-07T14:39:55.039Z,6.80
2022-12-07T14:41:58.401Z,6.84
2022-12-07T14:44:22.348Z,6.74
2022-12-07T14:46:25.368Z,6.81
2022-12-07T14:55:29.419Z,6.85
2022-12-07T14:57:32.737Z,6.88
2022-12-07T14:59:39.191Z,6.89
2022-12-07T15:01:45.166Z,6.95
2022-12-07T15:03:48.630Z,7.00
2022-12-07T15:05:51.980Z,6.89
2022-12-07T15:07:56.922Z,6.79
2022-12-07T15:10:00.266Z,6.78
2022-12-07T15:12:04.652Z,6.81
2022-12-07T15:14:12.245Z,6.80
2022-12-07T15:16:21.414Z,6.78
2022-12-07T15:18:26.263Z,6.74
2022-12-07T15:20:29.589Z,6.76
2022-12-07T15:22:38.206Z,6.51
2022-12-07T15:24:43.492Z,6.43
2022-12-07T15:26:48.007Z,6.31
2022-12-07T15:28:51.492Z,6.05
2022-12-07T15:30:54.803Z,5.95
2022-12-07T15:32:58.146Z,5.94
2022-12-07T15:35:02.158Z,5.82
2022-12-07T15:37:05.858Z,5.88
2022-12-07T15:39:14.693Z,6.06
2022-12-07T15:41:20.222Z,6.06
2022-12-07T15:43:41.417Z,6.07
2022-12-07T15:45:44.722Z,5.97
2022-12-07T15:48:26.845Z,5.95
2022-12-07T15:50:14.400Z,5.93
2022-12-07T15:52:17.902Z,5.95
2022-12-07T15:54:23.642Z,5.92
2022-12-07T15:56:28.343Z,5.89
2022-12-07T15:58:33.163Z,5.74
2022-12-07T16:00:36.572Z,5.58
2022-12-07T16:02:40.376Z,5.96
2022-12-07T16:04:43.842Z,6.02
2022-12-07T16:06:47.455Z,6.01
2022-12-07T16:08:50.834Z,5.86
2022-12-07T16:10:54.181Z,5.88
2022-12-07T16:12:58.989Z,5.95
2022-12-07T16:15:02.703Z,6.02
2022-12-07T16:17:06.737Z,5.94
2022-12-07T16:19:10.279Z,5.70
2022-12-07T16:21:13.877Z,5.54
2022-12-07T16:23:17.780Z,5.74
2022-12-07T16:25:21.187Z,5.72
2022-12-07T16:27:24.501Z,5.69
2022-12-07T16:29:29.275Z,5.75
2022-12-07T16:31:32.798Z,5.60
2022-12-07T16:33:36.497Z,5.61
2022-12-07T16:35:41.804Z,5.70
2022-12-07T16:37:45.352Z,5.73
2022-12-07T16:39:48.689Z,5.77
2022-12-07T16:41:53.740Z,5.85
2022-12-07T16:43:57.059Z,5.85
2022-12-07T16:46:01.954Z,5.95
2022-12-07T16:48:05.915Z,5.89
2022-12-07T16:50:09.908Z,5.72
2022-12-07T16:52:21.444Z,5.75
2022-12-07T16:54:24.963Z,5.74
2022-12-07T16:56:30.005Z,5.84
2022-12-07T16:58:33.951Z,5.58
2022-12-07T17:00:38.400Z,5.49
2022-12-07T17:02:43.164Z,5.56
2022-12-07T17:04:46.443Z,5.62
2022-12-07T17:06:49.725Z,5.61
2022-12-07T17:08:53.944Z,5.57
2022-12-07T17:10:57.338Z,5.71
2022-12-07T17:13:00.660Z,5.76
2022-12-07T17:15:18.803Z,5.69
2022-12-07T17:17:22.185Z,5.65
2022-12-07T17:19:26.852Z,5.66
2022-12-07T17:21:30.362Z,5.44
2022-12-07T17:23:35.128Z,5.77
2022-12-07T17:25:38.443Z,5.67
2022-12-07T17:27:42.250Z,5.70
2022-12-07T17:29:45.561Z,5.73
2022-12-07T17:31:51.950Z,5.67
2022-12-07T17:33:55.592Z,5.76
2022-12-07T17:36:00.243Z,5.75
2022-12-07T17:38:03.655Z,5.67
2022-12-07T17:40:08.155Z,5.74
2022-12-07T17:42:29.153Z,5.80
2022-12-07T17:44:32.961Z,5.81
2022-12-07T17:46:36.284Z,5.81
2022-12-07T17:48:39.691Z,5.88
2022-12-07T17:51:00.521Z,5.84
2022-12-07T17:53:14.088Z,5.80
2022-12-07T17:55:17.759Z,5.87
2022-12-07T17:57:21.039Z,5.88
2022-12-07T17:59:24.536Z,5.83
2022-12-07T18:01:34.210Z,5.74
2022-12-07T18:03:37.959Z,5.80
2022-12-07T18:05:45.070Z,5.55
2022-12-07T18:07:48.714Z,5.54
2022-12-07T18:09:53.570Z,5.71
2022-12-07T18:11:56.905Z,5.70
2022-12-07T18:14:00.388Z,5.60
2022-12-07T18:16:05.116Z,5.50
2022-12-07T18:18:08.630Z,5.70
2022-12-07T18:20:12.947Z,5.64
2022-12-07T18:22:16.441Z,5.80
2022-12-07T18:24:19.906Z,5.81
2022-12-07T18:26:26.827Z,5.65
2022-12-07T18:28:31.097Z,5.73
2022-12-07T18:31:06.508Z,5.79
2022-12-07T18:32:58.513Z,5.75
2022-12-07T18:35:02.313Z,5.71
2022-12-07T18:37:05.941Z,5.62
2022-12-07T18:39:10.149Z,5.47
2022-12-07T18:41:15.603Z,5.78
2022-12-07T18:43:20.332Z,5.86
2022-12-07T18:45:23.670Z,5.91
2022-12-07T18:47:27.122Z,5.95
2022-12-07T18:49:30.958Z,5.90
2022-12-07T18:51:34.316Z,5.94
2022-12-07T18:53:38.348Z,5.91
2022-12-07T18:55:41.677Z,5.96
2022-12-07T18:57:45.067Z,5.88
2022-12-07T18:59:49.600Z,5.88
2022-12-07T19:01:54.821Z,5.79
2022-12-07T19:03:58.533Z,5.56
2022-12-07T19:06:07.233Z,5.68
2022-12-07T19:08:10.681Z,5.70
2022-12-07T19:10:15.364Z,5.81
2022-12-07T19:12:18.773Z,5.79
2022-12-07T19:14:25.110Z,5.73
2022-12-07T19:16:29.859Z,5.64
2022-12-07T19:18:33.733Z,5.61
2022-12-07T19:20:37.119Z,5.77
2022-12-07T19:22:40.765Z,5.80
2022-12-07T19:24:46.403Z,5.84
2022-12-07T19:26:49.788Z,5.75
2022-12-07T19:28:53.135Z,5.64
2022-12-07T19:30:56.457Z,5.66
2022-12-07T19:33:01.143Z,5.72
2022-12-07T19:35:05.552Z,5.71
2022-12-07T19:37:11.393Z,5.65
2022-12-07T19:39:15.866Z,5.71
2022-12-07T19:41:39.199Z,5.76
2022-12-07T19:43:42.545Z,5.78
2022-12-07T19:45:45.948Z,5.64
2022-12-07T19:47:49.441Z,5.62
2022-12-07T19:49:54.498Z,5.70
2022-12-07T19:52:00.595Z,5.56
2022-12-07T19:54:04.177Z,5.74
2022-12-07T19:56:08.528Z,5.78
2022-12-07T19:58:11.882Z,5.85
2022-12-07T20:00:16.017Z,5.92
2022-12-07T20:02:19.411Z,5.82
2022-12-07T20:04:24.829Z,5.89
2022-12-07T20:06:29.516Z,5.79
2022-12-07T20:08:32.851Z,5.78
2022-12-07T20:10:39.738Z,5.81
2022-12-07T20:13:00.691Z,5.87
2022-12-07T20:15:04.484Z,5.89
2022-12-07T20:17:08.189Z,5.87
2022-12-07T20:19:11.845Z,5.61
2022-12-07T20:21:15.436Z,5.69
2022-12-07T20:23:20.146Z,5.57
2022-12-07T20:25:23.482Z,5.53
2022-12-07T20:27:26.824Z,5.57
2022-12-07T20:29:30.227Z,5.60
2022-12-07T20:31:33.656Z,5.51
2022-12-07T20:33:37.083Z,5.55
2022-12-07T20:35:40.481Z,5.54
2022-12-07T20:37:43.820Z,5.40
2022-12-07T20:39:48.582Z,5.33
2022-12-07T20:42:09.625Z,5.31
2022-12-07T20:44:14.286Z,5.36
2022-12-07T20:46:17.758Z,5.26
2022-12-07T20:48:21.587Z,5.30
2022-12-07T20:50:25.227Z,5.27
2022-12-07T20:52:28.675Z,5.30
2022-12-07T20:54:32.130Z,5.14
2022-12-07T20:56:37.244Z,5.30
2022-12-07T20:58:40.590Z,5.38
2022-12-07T21:00:43.930Z,5.38
2022-12-07T21:02:47.293Z,5.39
2022-12-07T21:04:50.639Z,5.38
2022-12-07T21:06:54.117Z,5.31
2022-12-07T21:08:59.424Z,5.05
2022-12-07T21:11:08.548Z,5.16
2022-12-07T21:13:13.222Z,5.30
2022-12-07T21:15:16.572Z,5.30
2022-12-07T21:17:19.913Z,5.25
2022-12-07T21:19:24.883Z,5.15
2022-12-07T21:21:28.213Z,5.20
2022-12-07T21:23:31.691Z,5.20
2022-12-07T21:25:35.050Z,5.17
2022-12-07T21:27:38.403Z,5.11
2022-12-07T21:29:44.589Z,5.11
2022-12-07T21:31:48.631Z,4.97
2022-12-07T21:33:52.212Z,4.88
2022-12-07T21:35:55.569Z,4.80
2022-12-07T21:37:58.846Z,4.90
2022-12-07T21:40:02.188Z,4.99
2022-12-07T21:42:05.815Z,5.04
2022-12-07T21:44:10.524Z,4.78
2022-12-07T21:46:16.163Z,4.86
2022-12-07T21:48:20.923Z,4.82
2022-12-07T21:50:24.389Z,4.79
2022-12-07T21:52:27.725Z,4.90
2022-12-07T21:54:31.198Z,4.86
2022-12-07T21:56:36.978Z,4.84
2022-12-07T21:58:40.305Z,4.85
2022-12-07T22:00:43.677Z,4.88
2022-12-07T22:02:48.348Z,4.90
2022-12-07T22:04:51.719Z,4.93
2022-12-07T22:06:56.906Z,4.90
2022-12-07T22:09:00.476Z,4.89
2022-12-07T22:11:03.840Z,4.98
2022-12-07T22:13:07.162Z,5.04
2022-12-07T22:15:10.363Z,5.02
2022-12-07T22:17:13.870Z,5.05
2022-12-07T22:19:18.901Z,5.09
2022-12-07T22:21:22.711Z,4.99
2022-12-07T22:23:26.160Z,4.85
2022-12-07T22:25:29.540Z,4.86
2022-12-07T22:27:33.662Z,4.87
2022-12-07T22:29:37.050Z,4.77
2022-12-07T22:31:41.950Z,4.69
2022-12-07T22:33:45.703Z,4.67
2022-12-07T22:35:54.650Z,4.64
2022-12-07T22:37:57.987Z,4.73
2022-12-07T22:40:01.478Z,4.85
2022-12-07T22:42:04.939Z,4.93
2022-12-07T22:44:08.871Z,4.86
2022-12-07T22:46:12.267Z,4.81
2022-12-07T22:48:15.897Z,4.85
2022-12-07T22:50:19.259Z,4.89
2022-12-07T22:52:23.896Z,4.97
2022-12-07T22:54:27.225Z,5.00
2022-12-07T22:56:33.437Z,4.91
2022-12-07T22:58:36.737Z,5.04
2022-12-07T23:00:40.125Z,4.97
2022-12-07T23:02:43.514Z,4.90
2022-12-07T23:04:46.888Z,4.84
2022-12-07T23:06:50.221Z,4.71
2022-12-07T23:08:57.638Z,4.69
2022-12-07T23:11:00.957Z,4.81
2022-12-07T23:13:21.961Z,4.81
2022-12-07T23:15:25.320Z,4.79
2022-12-07T23:17:28.808Z,4.78
2022-12-07T23:19:32.285Z,4.79
2022-12-07T23:21:36.122Z,4.67
2022-12-07T23:23:39.507Z,4.73
2022-12-07T23:25:44.133Z,4.78
2022-12-07T23:27:47.470Z,4.80
2022-12-07T23:29:50.903Z,4.81
2022-12-07T23:31:54.281Z,4.72
2022-12-07T23:33:57.699Z,4.62
2022-12-07T23:36:08.646Z,4.60
2022-12-07T23:38:12.014Z,4.66
2022-12-07T23:40:15.373Z,4.81
2022-12-07T23:42:20.148Z,4.56
2022-12-07T23:44:23.602Z,4.47
2022-12-07T23:46:29.093Z,4.51
2022-12-07T23:48:32.543Z,4.73
2022-12-07T23:50:35.870Z,4.72
2022-12-07T23:52:39.204Z,4.70
2022-12-07T23:54:42.513Z,4.81
2022-12-07T23:56:45.862Z,4.80
2022-12-07T23:58:51.776Z,4.68
